createdAt,value
2019-01-16T00:01:06.605Z,8.93
2019-01-16T00:03:56.208Z,8.23
2019-01-16T00:07:22.535Z,12.47
2019-01-16T00:21:30.014Z,10.20
2019-01-16T00:28:24.727Z,8.00
2019-01-16T00:34:54.662Z,8.17
2019-01-16T00:38:25.787Z,10.23
2019-01-16T00:41:09.059Z,7.87
2019-01-16T00:44:20.645Z,8.40
2019-01-16T00:47:19.640Z,7.67
2019-01-16T00:50:35.684Z,9.67
2019-01-16T00:54:36.067Z,10.63
2019-01-16T00:57:35.651Z,8.70
2019-01-16T01:00:56.776Z,8.53
2019-01-16T01:04:09.483Z,10.33
2019-01-16T01:07:59.375Z,10.43
2019-01-16T01:11:27.738Z,7.93
2019-01-16T01:14:59.836Z,12.10
2019-01-16T01:18:19.235Z,10.13
2019-01-16T01:21:19.995Z,11.83
2019-01-16T01:24:34.989Z,8.77
2019-01-16T01:31:16.324Z,9.27
2019-01-16T01:34:27.867Z,8.90
2019-01-16T01:37:44.065Z,7.27
2019-01-16T01:41:48.517Z,7.90
2019-01-16T01:43:35.406Z,9.30
2019-01-16T01:46:31.759Z,7.77
2019-01-16T01:49:40.576Z,11.57
2019-01-16T02:00:02.243Z,8.03
2019-01-16T02:03:44.134Z,6.93
2019-01-16T02:07:06.073Z,8.83
2019-01-16T02:10:56.510Z,6.40
2019-01-16T02:14:01.857Z,6.33
2019-01-16T04:39:09.362Z,4.40
2019-01-16T04:41:38.400Z,6.60
2019-01-16T04:44:58.267Z,3.90
2019-01-16T04:48:03.879Z,3.60
2019-01-16T04:51:06.081Z,4.20
2019-01-16T04:54:14.301Z,3.60
2019-01-16T04:57:20.076Z,7.10
2019-01-16T05:00:22.413Z,3.53
2019-01-16T05:03:14.969Z,3.93
2019-01-16T05:06:21.344Z,5.90
2019-01-16T05:09:24.444Z,3.73
2019-01-16T05:12:27.086Z,3.57
2019-01-16T05:15:27.739Z,3.27
2019-01-16T05:19:14.573Z,3.90
2019-01-16T05:21:44.097Z,3.97
2019-01-16T05:25:09.633Z,3.63
2019-01-16T05:28:18.340Z,3.77
2019-01-16T05:31:08.373Z,3.33
2019-01-16T05:34:06.182Z,4.27
2019-01-16T05:37:11.715Z,4.40
2019-01-16T05:40:18.359Z,4.70
2019-01-16T05:43:16.948Z,4.80
2019-01-16T05:46:13.235Z,4.53
2019-01-16T05:49:29.481Z,5.27
2019-01-16T05:52:37.550Z,4.93
2019-01-16T05:56:02.806Z,4.23
2019-01-16T05:58:58.527Z,6.00
2019-01-16T06:01:38.600Z,4.77
2019-01-16T06:04:33.688Z,4.03
2019-01-16T06:07:58.537Z,5.37
2019-01-16T06:11:03.005Z,3.90
2019-01-16T06:14:13.270Z,3.90
2019-01-16T06:17:33.308Z,3.83
2019-01-16T06:20:36.199Z,4.90
2019-01-16T06:23:48.710Z,4.00
2019-01-16T06:26:50.278Z,5.00
2019-01-16T06:29:52.323Z,5.13
2019-01-16T06:32:54.307Z,3.80
2019-01-16T06:36:18.853Z,6.27
2019-01-16T06:39:20.501Z,4.60
2019-01-16T06:42:36.254Z,4.67
2019-01-16T06:45:38.418Z,5.57
2019-01-16T06:49:10.290Z,5.57
2019-01-16T06:51:53.511Z,4.33
2019-01-16T06:55:10.636Z,6.70
2019-01-16T06:58:23.288Z,4.30
2019-01-16T07:01:25.830Z,4.70
2019-01-16T07:04:27.971Z,7.10
2019-01-16T07:08:14.518Z,7.03
2019-01-16T07:11:05.828Z,4.97
2019-01-16T07:14:09.265Z,3.90
2019-01-16T07:17:13.936Z,5.20
2019-01-16T07:20:11.675Z,5.63
2019-01-16T07:23:04.313Z,8.50
2019-01-16T07:27:00.210Z,3.60
2019-01-16T07:30:01.683Z,4.30
2019-01-16T07:32:59.767Z,3.60
2019-01-16T07:39:33.129Z,5.30
2019-01-16T07:42:33.677Z,4.53
2019-01-16T07:46:05.032Z,4.00
2019-01-16T07:49:12.593Z,3.60
2019-01-16T07:52:21.909Z,4.43
2019-01-16T07:55:41.085Z,4.47
2019-01-16T07:58:33.429Z,4.53
2019-01-16T08:01:38.580Z,3.73
2019-01-16T08:05:08.405Z,7.07
2019-01-16T08:07:52.320Z,4.57
2019-01-16T08:11:00.396Z,4.70
2019-01-16T08:14:18.192Z,4.43
2019-01-16T08:17:24.705Z,3.53
2019-01-16T08:20:37.085Z,5.10
2019-01-16T08:23:57.607Z,3.13
2019-01-16T08:27:16.056Z,3.43
2019-01-16T08:30:11.461Z,4.53
2019-01-16T08:33:06.173Z,4.50
2019-01-16T08:36:35.271Z,4.83
2019-01-16T08:39:36.920Z,3.20
2019-01-16T08:42:38.888Z,5.23
2019-01-16T08:45:42.894Z,3.53
2019-01-16T08:48:51.815Z,8.93
2019-01-16T08:51:53.612Z,3.27
2019-01-16T08:54:53.889Z,6.43
2019-01-16T08:57:57.213Z,3.10
2019-01-16T09:00:52.856Z,3.63
2019-01-16T09:03:59.460Z,2.83
2019-01-16T09:07:38.166Z,4.20
2019-01-16T09:10:41.016Z,4.07
2019-01-16T09:13:37.995Z,4.40
2019-01-16T09:16:31.478Z,2.10
2019-01-16T09:19:41.190Z,3.13
2019-01-16T09:23:27.522Z,2.80
2019-01-16T09:26:34.823Z,2.30
2019-01-16T09:29:44.471Z,6.70
2019-01-16T09:32:50.731Z,7.00
2019-01-16T09:35:55.502Z,3.60
2019-01-16T09:38:57.367Z,2.97
2019-01-16T09:41:53.555Z,7.20
2019-01-16T09:44:58.927Z,4.30
2019-01-16T09:48:24.940Z,3.47
2019-01-16T09:51:30.101Z,3.87
2019-01-16T09:55:40.835Z,3.43
2019-01-16T09:57:54.497Z,3.00
2019-01-16T10:01:08.753Z,2.47
2019-01-16T10:04:27.179Z,2.30
2019-01-16T10:08:08.518Z,6.57
2019-01-16T10:10:56.640Z,2.77
2019-01-16T10:13:54.534Z,3.73
2019-01-16T10:17:51.262Z,2.50
2019-01-16T10:20:46.995Z,7.50
2019-01-16T10:23:53.675Z,2.77
2019-01-16T10:26:44.961Z,3.33
2019-01-16T10:29:59.443Z,2.40
2019-01-16T10:33:24.129Z,3.03
2019-01-16T10:36:18.199Z,3.13
2019-01-16T10:39:29.164Z,3.37
2019-01-16T10:42:28.057Z,3.43
2019-01-16T10:45:22.752Z,2.60
2019-01-16T10:48:33.756Z,3.27
2019-01-16T10:51:44.884Z,3.30
2019-01-16T10:55:29.314Z,2.83
2019-01-16T11:18:54.844Z,2.50
2019-01-16T11:21:19.237Z,2.80
2019-01-16T11:27:50.347Z,2.80
2019-01-16T11:30:49.547Z,5.23
2019-01-16T11:33:58.644Z,4.47
2019-01-16T11:37:00.574Z,2.93
2019-01-16T11:40:09.601Z,3.13
2019-01-16T11:43:28.022Z,2.67
2019-01-16T11:47:02.401Z,3.67
2019-01-16T11:57:45.619Z,2.70
2019-01-16T12:00:39.901Z,4.63
2019-01-16T12:19:26.451Z,2.10
2019-01-16T12:29:42.766Z,2.00
2019-01-16T12:30:14.667Z,2.17
2019-01-16T12:33:13.643Z,3.17
2019-01-16T12:36:15.986Z,2.37
2019-01-16T12:39:14.728Z,2.03
2019-01-16T12:43:06.965Z,3.83
2019-01-16T12:45:47.495Z,3.07
2019-01-16T12:52:37.355Z,3.37
2019-01-16T12:55:26.310Z,2.27
2019-01-16T12:58:17.979Z,4.50
2019-01-16T13:01:14.628Z,2.27
2019-01-16T13:04:29.072Z,2.43
2019-01-16T13:07:47.771Z,7.80
2019-01-16T13:12:28.523Z,3.10
2019-01-16T13:13:55.596Z,2.53
2019-01-16T13:17:07.154Z,2.07
2019-01-16T13:20:25.741Z,2.77
2019-01-16T13:23:09.497Z,5.43
2019-01-16T13:26:11.790Z,2.33
2019-01-16T13:29:17.056Z,2.53
2019-01-16T13:33:01.670Z,3.03
2019-01-16T13:36:20.890Z,5.97
2019-01-16T13:39:57.440Z,10.03
2019-01-16T13:43:02.507Z,5.30
2019-01-16T13:46:10.345Z,16.03
2019-01-16T13:49:26.615Z,10.13
2019-01-16T13:52:47.475Z,11.20
2019-01-16T13:58:43.404Z,5.43
2019-01-16T13:59:08.655Z,7.17
2019-01-16T14:05:25.900Z,4.00
2019-01-16T14:08:45.813Z,6.57
2019-01-16T14:12:09.550Z,7.37
2019-01-16T14:15:19.206Z,6.53
2019-01-16T14:18:14.078Z,10.00
2019-01-16T14:21:17.753Z,5.40
2019-01-16T14:24:21.516Z,10.20
2019-01-16T14:27:18.112Z,12.20
2019-01-16T14:31:02.554Z,17.40
2019-01-16T14:38:37.397Z,15.07
2019-01-16T14:42:21.625Z,14.27
2019-01-16T14:45:30.399Z,7.37
2019-01-16T14:57:04.230Z,5.03
2019-01-16T15:10:47.025Z,8.23
2019-01-16T15:14:08.787Z,9.30
2019-01-16T15:18:35.560Z,7.93
2019-01-16T15:20:14.876Z,4.90
2019-01-16T15:23:16.905Z,7.93
2019-01-16T15:27:18.471Z,10.10
2019-01-16T15:30:38.453Z,14.63
2019-01-16T15:33:46.461Z,25.00
2019-01-16T15:36:58.363Z,8.17
2019-01-16T15:40:07.812Z,10.17
2019-01-16T15:50:17.378Z,9.90
2019-01-16T15:53:29.958Z,7.80
2019-01-16T15:56:16.791Z,11.77
2019-01-16T15:59:19.685Z,10.47
2019-01-16T16:02:38.679Z,8.20
2019-01-16T16:07:09.287Z,11.23
2019-01-16T16:09:09.571Z,24.50
2019-01-16T16:12:01.572Z,12.10
2019-01-16T16:14:54.189Z,11.10
2019-01-16T16:17:41.091Z,10.57
2019-01-16T16:20:35.722Z,8.03
2019-01-16T16:23:24.861Z,9.30
2019-01-16T16:26:34.692Z,9.77
2019-01-16T16:29:32.164Z,10.80
2019-01-16T16:32:52.505Z,8.83
2019-01-16T16:36:12.590Z,7.40
2019-01-16T16:39:11.159Z,12.03
2019-01-16T16:42:12.324Z,13.03
2019-01-16T16:45:14.697Z,9.33
2019-01-16T16:48:26.034Z,12.30
2019-01-16T16:51:38.089Z,16.27
2019-01-16T16:55:20.292Z,13.93
2019-01-16T16:58:13.244Z,8.57
2019-01-16T17:01:06.403Z,11.63
2019-01-16T17:04:14.773Z,12.97
2019-01-16T17:07:12.792Z,10.90
2019-01-16T17:10:05.962Z,11.60
2019-01-16T17:16:17.830Z,11.40
2019-01-16T17:19:41.686Z,34.03
2019-01-16T17:22:54.878Z,16.53
2019-01-16T17:26:27.632Z,24.53
2019-01-16T17:29:22.488Z,10.67
2019-01-16T17:32:23.708Z,18.63
2019-01-16T17:36:10.948Z,14.73
2019-01-16T17:39:40.699Z,15.50
2019-01-16T17:42:51.727Z,34.83
2019-01-16T17:46:08.108Z,17.63
2019-01-16T17:50:07.758Z,11.90
2019-01-16T17:53:05.694Z,14.43
2019-01-16T17:56:12.097Z,30.60
2019-01-16T17:59:25.335Z,23.17
2019-01-16T18:02:21.394Z,30.27
2019-01-16T18:05:32.192Z,33.47
2019-01-16T18:08:19.488Z,16.77
2019-01-16T18:11:18.380Z,15.60
2019-01-16T18:24:52.737Z,22.10
2019-01-16T18:27:58.387Z,27.73
2019-01-16T18:31:28.415Z,24.93
2019-01-16T18:34:13.071Z,15.63
2019-01-16T18:37:22.896Z,11.80
2019-01-16T18:41:05.121Z,13.13
2019-01-16T18:44:26.919Z,11.43
2019-01-16T18:48:01.155Z,12.47
2019-01-16T18:51:04.131Z,16.50
2019-01-16T18:54:13.102Z,12.70
2019-01-16T18:57:13.666Z,10.17
2019-01-16T19:01:01.340Z,15.87
2019-01-16T19:03:50.596Z,10.60
2019-01-16T19:06:45.830Z,16.03
2019-01-16T19:09:38.654Z,10.43
2019-01-16T19:12:49.888Z,18.07
2019-01-16T19:15:40.874Z,47.60
2019-01-16T19:18:30.641Z,16.60
2019-01-16T19:21:29.546Z,15.00
2019-01-16T19:24:23.610Z,16.97
2019-01-16T19:27:31.826Z,21.77
2019-01-16T19:30:29.299Z,26.40
2019-01-16T19:33:30.359Z,39.63
2019-01-16T19:36:45.664Z,18.60
2019-01-16T19:39:43.060Z,15.13
2019-01-16T19:42:52.124Z,14.80
2019-01-16T19:49:04.512Z,30.80
2019-01-16T19:51:57.543Z,25.00
2019-01-16T19:58:19.925Z,13.37
2019-01-16T20:01:18.526Z,13.10
2019-01-16T20:04:07.160Z,12.37
2019-01-16T20:07:10.715Z,13.47
2019-01-16T20:13:45.637Z,22.37
2019-01-16T20:16:39.079Z,15.03
2019-01-16T20:19:35.229Z,16.00
2019-01-16T20:22:40.053Z,14.47
2019-01-16T20:25:43.678Z,11.80
2019-01-16T20:28:43.370Z,15.73
2019-01-16T20:31:32.935Z,12.27
2019-01-16T20:34:19.780Z,12.00
2019-01-16T20:37:13.727Z,11.53
2019-01-16T20:40:06.605Z,14.00
2019-01-16T20:43:04.148Z,13.90
2019-01-16T20:46:03.181Z,13.27
2019-01-16T20:48:56.289Z,12.27
2019-01-16T20:51:49.695Z,27.47
2019-01-16T20:54:54.808Z,14.70
2019-01-16T20:57:54.112Z,19.20
2019-01-16T21:00:57.319Z,13.17
2019-01-16T21:03:52.209Z,11.40
2019-01-16T21:06:45.587Z,13.83
2019-01-16T21:09:46.416Z,11.70
2019-01-16T21:12:42.641Z,11.17
2019-01-16T21:15:34.870Z,15.53
2019-01-16T21:18:29.405Z,14.47
2019-01-16T21:21:21.708Z,9.90
2019-01-16T21:24:17.125Z,15.30
2019-01-16T21:27:44.162Z,12.83
2019-01-16T21:30:56.932Z,13.03
2019-01-16T21:33:48.614Z,12.77
2019-01-16T21:36:41.871Z,11.73
2019-01-16T21:39:32.165Z,13.33
2019-01-16T21:42:17.953Z,14.50
2019-01-16T21:45:04.790Z,11.93
2019-01-16T21:48:05.031Z,12.13
2019-01-16T21:51:05.110Z,13.87
2019-01-16T21:53:56.665Z,9.33
2019-01-16T21:56:49.761Z,9.00
2019-01-16T21:59:41.958Z,9.03
2019-01-16T22:02:36.538Z,11.07
2019-01-16T22:05:34.404Z,10.63
2019-01-16T22:08:31.040Z,9.57
2019-01-16T22:11:19.178Z,12.33
2019-01-16T22:14:21.578Z,11.23
2019-01-16T22:17:15.251Z,11.83
2019-01-16T22:20:19.362Z,11.03
2019-01-16T22:23:10.579Z,9.57
2019-01-16T22:26:14.974Z,11.73
2019-01-16T22:28:59.473Z,9.13
2019-01-16T22:31:47.824Z,9.33
2019-01-16T22:34:47.865Z,9.90
2019-01-16T22:38:00.885Z,10.47
2019-01-16T22:41:00.319Z,11.93
2019-01-16T22:44:02.601Z,8.20
2019-01-16T22:47:40.197Z,8.47
2019-01-16T22:49:53.679Z,11.57
2019-01-16T22:52:52.156Z,11.70
2019-01-16T22:56:01.371Z,9.73
2019-01-16T22:59:00.145Z,14.13
2019-01-16T23:02:39.699Z,11.10
2019-01-16T23:05:42.852Z,9.47
2019-01-16T23:09:18.405Z,11.43
2019-01-16T23:12:13.448Z,8.87
2019-01-16T23:15:08.663Z,10.20
2019-01-16T23:17:48.921Z,8.53
2019-01-16T23:20:40.750Z,11.27
2019-01-16T23:23:31.480Z,9.53
2019-01-16T23:26:20.597Z,6.70
2019-01-16T23:29:11.522Z,10.67
2019-01-16T23:33:49.538Z,10.07
2019-01-16T23:35:21.444Z,8.03
2019-01-16T23:38:23.518Z,8.17
2019-01-16T23:41:04.131Z,7.53
2019-01-16T23:43:52.309Z,9.17
2019-01-16T23:46:40.566Z,10.63
2019-01-16T23:49:50.873Z,9.93
2019-01-16T23:53:02.005Z,8.17
2019-01-16T23:55:50.167Z,7.23
2019-01-16T23:58:44.772Z,8.57
